Terminal Aerodrome Forecast
Issued by NWS Duluth, MN

Home | Current Version | Previous Version | Graphics & Text | Print | Product List | Glossary On
Versions: 1 2 3 4 5 6 7 8 9 10 11 12 13 14 15 16 17 18 19 20 21 22 23 24 25 26 27 28 29 30 31 32 33 34 35 36 37 38
000
FTUS43 KDLH 172336
TAFDLH
TAF
KDLH 172336Z 1800/1824 VRB03KT 3SM BR BKN004
     FM180500 34007KT P6SM BKN015
     FM181500 33010G17KT P6SM SCT035
     FM181900 32012G19KT P6SM BKN035=

USA.gov is the U.S. government's official web portal to all federal, state and local government web resources and services.